Cutlerville, Michigan
Current Conditions -  °F | °C
As of 5:41 PM on Monday 24 Nov 2014 (Local Time) from KGRR Reporting Station
Overcast Overcast  
Wind Chill: 20°   Ceiling: 1500
Heat Index: 34°   Visibility: 10mi
Dew Point: 33°   Wind: 32mph
Humidity: 96%   Direction: 230°SW
Pressure: 29.43"   Gusts: 45mph
Location:  42.8657°N, 85.663°W
Report Text: KGRR 242241Z 23028G39KT 10SM OVC015 01/01 A2943 RMK AO2 PK WND 24040/2203 SNE11 P0000 T00110006 $
Loading
Personal Weather Stations






























Interactive Weather Map New forecast layout! Learn more

10-Day Weather Forecast

Advertisements
Track Severe Weather on mobile